Homer, AK (99603)

9:03 PM AKDT on September 27, 2016 (GMT -0800)
KAKHOMER5 | | Change Station

Elev 1152 ft 59.67 °N, 151.49 °W | Updated 22 seconds ago

Clear
Clear
43.5 °F
Feels Like 38 °F
N
9.0
Wind Variable Wind from WNW
Gusts 13.0 mph

Today
High -- | Low -- °F
--% Chance of Precip.
Yesterday
High -- | Low -- °F
Precip. -- in
Pressure 30.28 in
Visibility 10.0 miles
Clouds Clear
Windchill 38 °F
Dew Point 36 °F
Humidity 76%
Rainfall 0.00 in
Snow Depth Not available.
8:03 AM 7:48 PM
Waning Crescent, 7% visible
METAR PAHO 280453Z 00000KT 10SM CLR 08/01 A3028 RMK SLP253 T00830011 VIA AUTODIAL
Pressure 30.28 in
Visibility 10.0 miles
Clouds Clear
Windchill 38 °F
Dew Point 36 °F
Humidity 76%
Rainfall 0.00 in
Snow Depth Not available.
8:03 AM 7:48 PM
Waning Crescent, 7% visible
METAR PAHO 280453Z 00000KT 10SM CLR 08/01 A3028 RMK SLP253 T00830011 VIA AUTODIAL

10-Day Weather Forecast

Almanac

Astronomy

Sep. 27, 2016 Rise Set
Actual Time
Civil Twilight
Nautical Twilight
Astronomical Twilight
Moon
Length of Visible Light
Length of Day
Tomorrow will be .
, % of the Moon is Illuminated

Today's Extremes

State Highs State Lows

Community

WunderPhotos

Upload Photos

1,942,213 photos uploaded!

WunderBlog® & News

Nearby

Air Quality

  Air Quality AQ Index Pollutant
Not available.

Snow Depth

Station Depth Elevation

Earthquake Activity

City Distance Mag. Time & Date
Minimum magnitude displayed is 2.5.

Coastal Water Temperatures

Place Temperature

Stations

Nearby Weather Stations

Station Location Temp. Windchill Dew Point Humidity Wind Precip. Elev Updated Type
                   

Watches & Warnings

There are currently no watches in effect.